createdAt,value
2018-02-17T00:01:23.757Z,22.00
2018-02-17T00:03:52.028Z,29.50
2018-02-17T00:06:20.318Z,33.43
2018-02-17T00:08:48.621Z,41.03
2018-02-17T00:11:16.881Z,43.57
2018-02-17T00:13:45.137Z,38.63
2018-02-17T00:16:13.448Z,32.00
2018-02-17T00:18:41.719Z,32.17
2018-02-17T00:21:10.008Z,26.60
2018-02-17T00:23:38.272Z,25.93
2018-02-17T00:26:06.544Z,43.27
2018-02-17T00:28:34.816Z,36.27
2018-02-17T00:31:03.112Z,37.33
2018-02-17T00:33:31.390Z,31.03
2018-02-17T00:35:59.660Z,28.43
2018-02-17T00:38:27.937Z,30.43
2018-02-17T00:40:56.727Z,31.10
2018-02-17T00:43:24.972Z,53.27
2018-02-17T00:45:53.965Z,30.40
2018-02-17T00:48:23.031Z,25.80
2018-02-17T00:50:51.272Z,26.37
2018-02-17T00:53:19.535Z,23.27
2018-02-17T00:55:47.825Z,23.93
2018-02-17T00:58:16.070Z,30.97
2018-02-17T01:00:45.110Z,33.90
2018-02-17T01:03:13.601Z,33.93
2018-02-17T01:05:41.871Z,28.57
2018-02-17T01:08:10.132Z,26.80
2018-02-17T01:10:38.397Z,20.30
2018-02-17T01:13:06.695Z,21.47
2018-02-17T01:15:34.916Z,25.03
2018-02-17T01:18:03.174Z,22.17
2018-02-17T01:20:31.454Z,44.13
2018-02-17T01:22:59.737Z,17.67
2018-02-17T01:25:28.258Z,26.60
2018-02-17T01:27:57.301Z,31.37
2018-02-17T01:30:25.567Z,28.03
2018-02-17T01:32:53.830Z,21.17
2018-02-17T01:35:22.119Z,25.63
2018-02-17T01:37:50.410Z,40.20
2018-02-17T01:40:18.651Z,23.23
2018-02-17T01:42:47.696Z,34.70
2018-02-17T01:45:15.973Z,36.57
2018-02-17T01:47:44.215Z,35.87
2018-02-17T01:50:24.977Z,32.10
2018-02-17T01:52:53.239Z,30.63
2018-02-17T01:55:21.516Z,26.63
2018-02-17T01:57:50.019Z,30.03
2018-02-17T02:00:19.075Z,30.33
2018-02-17T02:02:47.330Z,24.03
2018-02-17T02:05:15.560Z,29.80
2018-02-17T02:07:44.596Z,28.93
2018-02-17T02:10:12.879Z,39.53
2018-02-17T02:12:41.158Z,28.53
2018-02-17T02:15:09.433Z,27.83
2018-02-17T02:17:37.723Z,22.63
2018-02-17T02:20:06.003Z,40.67
2018-02-17T02:22:34.286Z,33.83
2018-02-17T02:25:02.521Z,40.27
2018-02-17T02:27:30.780Z,27.07
2018-02-17T02:29:59.822Z,21.33
2018-02-17T02:32:28.133Z,26.57
2018-02-17T02:34:56.397Z,22.20
2018-02-17T02:37:24.670Z,24.93
2018-02-17T02:39:52.931Z,24.23
2018-02-17T02:42:21.206Z,25.33
2018-02-17T02:44:49.492Z,24.87
2018-02-17T02:47:17.757Z,26.03
2018-02-17T02:49:46.015Z,32.03
2018-02-17T02:52:14.311Z,33.90
2018-02-17T02:54:42.547Z,29.80
2018-02-17T02:57:11.577Z,24.03
2018-02-17T02:59:39.880Z,34.03
2018-02-17T03:02:08.120Z,33.57
2018-02-17T03:04:36.435Z,37.43
2018-02-17T03:07:04.675Z,27.33
2018-02-17T03:09:32.941Z,32.30
2018-02-17T03:12:01.965Z,24.03
2018-02-17T03:14:30.206Z,29.23
2018-02-17T03:16:59.297Z,29.23
2018-02-17T03:19:27.538Z,30.63
2018-02-17T03:21:55.802Z,34.27
2018-02-17T03:24:24.305Z,21.03
2018-02-17T03:26:52.571Z,26.47
2018-02-17T03:29:20.857Z,34.17
2018-02-17T03:31:49.111Z,32.07
2018-02-17T03:34:17.397Z,28.53
2018-02-17T03:36:45.634Z,34.40
2018-02-17T03:39:14.682Z,32.23
2018-02-17T03:41:42.924Z,24.07
2018-02-17T03:44:11.181Z,38.27
2018-02-17T03:46:40.215Z,29.97
2018-02-17T03:49:08.507Z,33.60
2018-02-17T03:51:36.756Z,28.67
2018-02-17T03:54:05.019Z,40.10
2018-02-17T03:56:34.152Z,26.40
2018-02-17T03:59:03.256Z,35.40
2018-02-17T04:01:31.524Z,30.90
2018-02-17T04:03:59.792Z,45.50
2018-02-17T04:06:28.073Z,39.67
2018-02-17T04:08:56.388Z,32.40
2018-02-17T04:11:24.637Z,31.43
2018-02-17T04:13:52.935Z,32.13
2018-02-17T04:16:21.178Z,32.43
2018-02-17T04:18:49.437Z,38.57
2018-02-17T04:21:17.696Z,27.53
2018-02-17T04:23:45.981Z,45.37
2018-02-17T04:26:14.248Z,32.67
2018-02-17T04:28:43.282Z,50.47
2018-02-17T04:31:11.554Z,33.67
2018-02-17T04:33:39.800Z,40.43
2018-02-17T04:36:08.074Z,33.63
2018-02-17T04:38:37.083Z,38.00
2018-02-17T04:41:21.218Z,38.43
2018-02-17T04:43:55.081Z,35.97
2018-02-17T04:46:29.034Z,36.03
2018-02-17T04:49:14.947Z,27.20
2018-02-17T04:51:44.755Z,35.10
2018-02-17T04:54:20.800Z,48.43
2018-02-17T04:56:52.114Z,42.23
2018-02-17T04:59:38.228Z,29.93
2018-02-17T05:02:23.218Z,35.47
2018-02-17T05:04:52.308Z,31.63
2018-02-17T05:07:24.375Z,40.77
2018-02-17T05:09:53.421Z,32.20
2018-02-17T05:12:21.686Z,42.77
2018-02-17T05:14:55.571Z,33.23
2018-02-17T05:17:25.657Z,40.63
2018-02-17T05:20:00.443Z,38.07
2018-02-17T05:22:28.714Z,33.87
2018-02-17T05:28:03.101Z,33.50
2018-02-17T05:30:35.289Z,43.60
2018-02-17T05:33:10.010Z,31.87
2018-02-17T05:38:51.827Z,36.47
2018-02-17T05:41:26.614Z,40.93
2018-02-17T05:43:54.861Z,44.73
2018-02-17T05:46:23.116Z,44.27
2018-02-17T05:48:53.082Z,35.93
2018-02-17T05:51:21.364Z,38.17
2018-02-17T05:53:49.652Z,37.60
2018-02-17T05:56:18.005Z,45.07
2018-02-17T05:58:46.253Z,42.13
2018-02-17T06:01:14.514Z,34.67
2018-02-17T06:03:43.571Z,36.07
2018-02-17T06:06:11.827Z,46.60
2018-02-17T06:08:40.091Z,38.83
2018-02-17T06:11:08.767Z,44.67
2018-02-17T06:13:37.795Z,40.80
2018-02-17T06:16:06.046Z,48.20
2018-02-17T06:18:34.298Z,43.97
2018-02-17T06:21:03.327Z,46.17
2018-02-17T06:23:31.585Z,39.13
2018-02-17T06:25:59.876Z,37.90
2018-02-17T06:28:28.119Z,44.77
2018-02-17T06:30:57.156Z,46.03
2018-02-17T06:33:25.415Z,37.30
2018-02-17T06:35:53.697Z,40.70
2018-02-17T06:38:21.939Z,38.93
2018-02-17T06:40:50.215Z,46.33
2018-02-17T06:43:20.000Z,41.53
2018-02-17T06:45:48.287Z,34.43
2018-02-17T06:48:16.606Z,31.97
2018-02-17T06:50:45.193Z,42.03
2018-02-17T06:53:14.241Z,52.53
2018-02-17T06:55:42.501Z,38.67
2018-02-17T06:58:10.759Z,45.53
2018-02-17T07:00:39.049Z,49.63
2018-02-17T07:03:07.853Z,52.53
2018-02-17T07:05:36.117Z,44.67
2018-02-17T07:08:04.493Z,28.73
2018-02-17T07:10:32.752Z,43.20
2018-02-17T07:13:00.999Z,40.00
2018-02-17T07:15:30.004Z,44.20
2018-02-17T07:17:58.309Z,46.93
2018-02-17T07:20:26.653Z,54.13
2018-02-17T07:22:55.227Z,36.13
2018-02-17T07:25:23.533Z,39.00
2018-02-17T07:27:52.611Z,55.77
2018-02-17T07:30:20.848Z,47.43
2018-02-17T07:32:49.105Z,42.80
2018-02-17T07:35:17.396Z,71.73
2018-02-17T07:37:45.642Z,55.13
2018-02-17T07:40:14.224Z,47.10
2018-02-17T07:42:43.262Z,57.60
2018-02-17T07:45:11.541Z,42.07
2018-02-17T07:47:39.794Z,50.10
2018-02-17T07:50:08.078Z,45.03
2018-02-17T07:52:36.352Z,35.33
2018-02-17T07:55:04.612Z,39.63
2018-02-17T07:57:33.671Z,49.83
2018-02-17T08:00:01.949Z,45.30
2018-02-17T08:02:30.205Z,48.03
2018-02-17T08:04:58.477Z,46.90
2018-02-17T08:07:26.759Z,45.53
2018-02-17T08:09:55.026Z,46.87
2018-02-17T08:12:23.306Z,61.03
2018-02-17T08:14:51.553Z,57.47
2018-02-17T08:17:20.574Z,54.87
2018-02-17T08:19:48.834Z,43.67
2018-02-17T08:22:17.842Z,48.93
2018-02-17T08:24:46.098Z,43.93
2018-02-17T08:27:14.403Z,55.43
2018-02-17T08:29:42.674Z,54.97
2018-02-17T08:32:10.934Z,51.43
2018-02-17T08:34:39.208Z,49.27
2018-02-17T08:37:07.695Z,47.77
2018-02-17T08:39:37.293Z,45.73
2018-02-17T08:42:05.571Z,59.87
2018-02-17T08:44:34.747Z,60.27
2018-02-17T08:47:03.782Z,58.63
2018-02-17T08:49:32.040Z,50.90
2018-02-17T08:52:01.099Z,45.83
2018-02-17T08:54:29.357Z,48.73
2018-02-17T08:56:57.627Z,55.13
2018-02-17T08:59:25.853Z,51.33
2018-02-17T09:01:55.179Z,52.40
2018-02-17T09:04:23.471Z,43.50
2018-02-17T09:06:51.764Z,56.67
2018-02-17T09:09:30.937Z,58.83
2018-02-17T09:11:59.189Z,56.83
2018-02-17T09:14:27.460Z,59.43
2018-02-17T09:16:55.750Z,53.37
2018-02-17T09:19:24.003Z,59.07
2018-02-17T09:21:52.269Z,50.27
2018-02-17T09:24:20.555Z,53.60
2018-02-17T09:26:48.810Z,55.30
2018-02-17T09:29:17.059Z,62.10
2018-02-17T09:31:46.091Z,45.00
2018-02-17T09:34:14.354Z,57.80
2018-02-17T09:36:42.646Z,58.77
2018-02-17T09:39:10.943Z,53.87
2018-02-17T09:41:39.238Z,46.83
2018-02-17T09:44:07.468Z,52.27
2018-02-17T09:46:35.765Z,45.90
2018-02-17T09:49:04.001Z,52.97
2018-02-17T09:51:33.026Z,52.93
2018-02-17T09:54:01.319Z,55.40
2018-02-17T09:56:29.550Z,50.30
2018-02-17T09:58:58.616Z,50.60
2018-02-17T10:01:26.897Z,51.63
2018-02-17T10:03:55.158Z,58.50
2018-02-17T10:06:23.409Z,51.40
2018-02-17T10:08:52.426Z,59.00
2018-02-17T10:11:20.760Z,59.93
2018-02-17T10:13:48.989Z,54.50
2018-02-17T10:16:17.259Z,58.43
2018-02-17T10:18:45.565Z,68.00
2018-02-17T10:21:13.972Z,72.07
2018-02-17T10:23:42.233Z,79.20
2018-02-17T10:26:10.501Z,81.00
2018-02-17T10:28:39.521Z,80.50
2018-02-17T10:31:08.542Z,79.53
2018-02-17T10:33:36.852Z,52.97
2018-02-17T10:36:05.151Z,57.13
2018-02-17T10:38:33.425Z,54.50
2018-02-17T10:41:01.695Z,59.73
2018-02-17T10:43:30.050Z,52.20
2018-02-17T10:45:58.449Z,58.07
2018-02-17T10:48:26.699Z,68.83
2018-02-17T10:50:54.967Z,57.90
2018-02-17T10:53:23.260Z,50.70
2018-02-17T10:55:51.502Z,75.63
2018-02-17T10:58:20.518Z,60.57
2018-02-17T11:00:48.796Z,65.47
2018-02-17T11:03:17.957Z,61.20
2018-02-17T11:05:46.232Z,63.10
2018-02-17T11:08:15.273Z,52.33
2018-02-17T11:10:43.537Z,64.60
2018-02-17T11:13:12.571Z,56.97
2018-02-17T11:15:40.821Z,74.53
2018-02-17T11:18:09.089Z,73.53
2018-02-17T11:20:37.380Z,49.70
2018-02-17T11:23:05.626Z,59.07
2018-02-17T11:25:34.727Z,115.80
2018-02-17T11:28:03.763Z,62.87
2018-02-17T11:30:32.017Z,44.17
2018-02-17T11:33:00.355Z,57.73
2018-02-17T11:35:29.194Z,56.00
2018-02-17T11:37:58.281Z,52.37
2018-02-17T11:40:27.293Z,84.87
2018-02-17T11:42:55.669Z,98.10
2018-02-17T11:45:24.011Z,43.13
2018-02-17T11:47:53.070Z,100.40
2018-02-17T11:50:22.858Z,68.53
2018-02-17T11:52:51.144Z,39.13
2018-02-17T11:55:19.425Z,55.63
2018-02-17T11:57:47.718Z,58.13
2018-02-17T12:00:15.985Z,85.00
2018-02-17T12:02:44.293Z,48.70
2018-02-17T12:05:12.555Z,59.10
2018-02-17T12:07:40.823Z,37.70
2018-02-17T12:10:09.114Z,53.23
2018-02-17T12:12:37.395Z,66.07
2018-02-17T12:15:05.677Z,82.93
2018-02-17T12:17:35.084Z,48.80
2018-02-17T12:20:03.344Z,46.90
2018-02-17T12:22:32.908Z,34.07
2018-02-17T12:25:01.149Z,40.83
2018-02-17T12:27:29.436Z,42.17
2018-02-17T12:29:58.491Z,39.00
2018-02-17T12:32:26.770Z,36.50
2018-02-17T12:34:55.016Z,77.13
2018-02-17T12:37:23.364Z,42.83
2018-02-17T12:39:52.356Z,57.20
2018-02-17T12:42:20.614Z,74.90
2018-02-17T12:44:48.869Z,38.37
2018-02-17T12:47:17.148Z,81.87
2018-02-17T12:49:45.443Z,51.83
2018-02-17T12:52:14.463Z,48.13
2018-02-17T12:54:43.536Z,38.57
2018-02-17T12:57:11.768Z,34.77
2018-02-17T12:59:40.018Z,32.80
2018-02-17T13:02:08.496Z,41.73
2018-02-17T13:04:38.247Z,37.03
2018-02-17T13:07:06.521Z,48.93
2018-02-17T13:09:34.811Z,49.80
2018-02-17T13:12:03.087Z,36.60
2018-02-17T13:14:31.332Z,29.17
2018-02-17T13:17:00.400Z,59.83
2018-02-17T13:19:28.742Z,71.63
2018-02-17T13:21:57.034Z,34.73
2018-02-17T13:24:25.271Z,24.03
2018-02-17T13:26:54.298Z,20.40
2018-02-17T13:29:23.149Z,30.03
2018-02-17T13:31:52.184Z,33.63
2018-02-17T13:34:20.593Z,43.13
2018-02-17T13:36:48.921Z,36.37
2018-02-17T13:39:17.971Z,34.77
2018-02-17T13:41:46.277Z,32.60
2018-02-17T13:44:15.319Z,44.10
2018-02-17T13:46:43.552Z,34.57
2018-02-17T13:49:11.903Z,33.50
2018-02-17T13:51:41.530Z,30.03
2018-02-17T13:54:09.743Z,29.10
2018-02-17T13:56:38.025Z,27.93
2018-02-17T13:59:06.291Z,48.23
2018-02-17T14:01:34.578Z,33.67
2018-02-17T14:04:04.428Z,42.70
2018-02-17T14:06:32.746Z,34.53
2018-02-17T14:09:01.040Z,31.50
2018-02-17T14:11:29.283Z,46.57
2018-02-17T14:13:58.997Z,40.40
2018-02-17T14:16:27.363Z,34.87
2018-02-17T14:18:55.665Z,45.47
2018-02-17T14:21:23.964Z,37.70
2018-02-17T14:23:52.210Z,33.90
2018-02-17T14:26:21.248Z,41.23
2018-02-17T14:28:49.903Z,42.03
2018-02-17T14:31:19.047Z,40.83
2018-02-17T14:33:48.590Z,35.63
2018-02-17T14:36:18.598Z,32.37
2018-02-17T14:38:46.842Z,34.77
2018-02-17T14:41:15.087Z,36.20
2018-02-17T14:43:43.402Z,40.03
2018-02-17T14:46:12.647Z,32.93
2018-02-17T14:48:41.021Z,28.60
2018-02-17T14:51:09.324Z,31.50
2018-02-17T14:53:38.791Z,42.30
2018-02-17T14:56:07.066Z,37.83
2018-02-17T14:58:36.865Z,43.23
2018-02-17T15:01:06.736Z,48.47
2018-02-17T15:03:35.738Z,43.13
2018-02-17T15:06:04.035Z,44.40
2018-02-17T15:08:33.099Z,39.50
2018-02-17T15:11:02.239Z,40.70
2018-02-17T15:13:32.764Z,47.47
2018-02-17T15:16:01.143Z,41.73
2018-02-17T15:18:29.799Z,47.40
2018-02-17T15:20:58.819Z,32.03
2018-02-17T15:23:27.088Z,29.30
2018-02-17T15:25:55.340Z,39.30
2018-02-17T15:28:24.384Z,47.03
2018-02-17T15:30:52.617Z,28.90
2018-02-17T15:33:20.916Z,32.60
2018-02-17T15:35:49.223Z,39.90
2018-02-17T15:38:17.459Z,31.17
2018-02-17T15:40:45.796Z,31.77
2018-02-17T15:43:15.009Z,26.13
2018-02-17T15:45:43.291Z,43.93
2018-02-17T15:48:14.652Z,31.40
2018-02-17T15:50:43.676Z,36.33
2018-02-17T15:53:11.929Z,38.53
2018-02-17T15:55:40.226Z,32.03
2018-02-17T15:58:08.508Z,82.50
2018-02-17T16:00:37.191Z,33.03
2018-02-17T16:03:05.463Z,30.83
2018-02-17T16:05:33.720Z,36.17
2018-02-17T16:08:02.530Z,31.53
2018-02-17T16:10:30.802Z,28.73
2018-02-17T16:12:59.076Z,25.57
2018-02-17T16:15:27.362Z,28.63
2018-02-17T16:17:55.627Z,19.60
2018-02-17T16:20:23.933Z,23.47
2018-02-17T16:22:52.181Z,32.93
2018-02-17T16:25:21.204Z,28.47
2018-02-17T16:27:49.759Z,32.83
2018-02-17T16:30:18.548Z,40.03
2018-02-17T16:32:46.898Z,49.40
2018-02-17T16:35:15.243Z,43.30
2018-02-17T16:37:43.510Z,26.97
2018-02-17T16:40:13.425Z,31.40
2018-02-17T16:42:41.685Z,26.77
2018-02-17T16:45:09.961Z,43.33
2018-02-17T16:47:38.247Z,36.83
2018-02-17T16:50:06.533Z,36.77
2018-02-17T16:52:34.888Z,42.07
2018-02-17T16:55:03.183Z,35.57
2018-02-17T16:57:31.578Z,38.77
2018-02-17T17:00:00.506Z,37.80
2018-02-17T17:02:29.646Z,34.73
2018-02-17T17:04:57.867Z,38.60
2018-02-17T17:07:26.207Z,40.70
2018-02-17T17:09:54.526Z,39.40
2018-02-17T17:12:22.772Z,35.93
2018-02-17T17:14:51.087Z,26.90
2018-02-17T17:17:19.334Z,28.70
2018-02-17T17:19:47.621Z,32.63
2018-02-17T17:22:15.912Z,30.37
2018-02-17T17:24:44.232Z,35.63
2018-02-17T17:27:13.991Z,34.77
2018-02-17T17:29:42.346Z,36.17
2018-02-17T17:32:10.635Z,46.83
2018-02-17T17:34:38.927Z,40.80
2018-02-17T17:37:07.195Z,52.37
2018-02-17T17:39:35.508Z,38.00
2018-02-17T17:42:05.327Z,41.43
2018-02-17T17:44:33.608Z,56.87
2018-02-17T17:47:01.893Z,41.20
2018-02-17T17:49:30.165Z,33.17
2018-02-17T17:51:58.405Z,34.47
2018-02-17T17:54:26.697Z,51.73
2018-02-17T17:56:55.019Z,62.07
2018-02-17T17:59:24.032Z,58.83
2018-02-17T18:01:53.157Z,60.50
2018-02-17T18:04:21.428Z,33.67
2018-02-17T18:06:49.712Z,39.67
2018-02-17T18:09:17.972Z,32.53
2018-02-17T18:11:46.271Z,36.03
2018-02-17T18:14:14.555Z,37.83
2018-02-17T18:16:42.843Z,35.77
2018-02-17T18:19:11.542Z,30.43
2018-02-17T18:21:41.635Z,43.57
2018-02-17T18:24:10.706Z,68.40
2018-02-17T18:26:39.834Z,35.30
2018-02-17T18:29:08.171Z,40.27
2018-02-17T18:31:36.429Z,39.67
2018-02-17T18:34:05.599Z,39.53
2018-02-17T18:36:34.661Z,28.03
2018-02-17T18:39:03.097Z,50.50
2018-02-17T18:41:32.124Z,41.17
2018-02-17T18:44:00.433Z,50.97
2018-02-17T18:46:29.628Z,36.57
2018-02-17T18:48:57.898Z,40.10
2018-02-17T18:51:26.880Z,36.17
2018-02-17T18:53:55.213Z,36.47
2018-02-17T18:56:24.414Z,39.33
2018-02-17T18:58:53.474Z,32.77
2018-02-17T19:01:21.793Z,41.60
2018-02-17T19:03:50.079Z,33.40
2018-02-17T19:06:18.501Z,36.47
2018-02-17T19:08:46.845Z,36.70
2018-02-17T19:11:15.862Z,53.37
2018-02-17T19:13:44.172Z,40.63
2018-02-17T19:16:12.486Z,29.57
2018-02-17T19:25:28.506Z,45.03
2018-02-17T19:27:57.659Z,45.37
2018-02-17T19:30:25.982Z,42.73
2018-02-17T19:32:55.186Z,63.70
2018-02-17T19:35:24.295Z,43.97
2018-02-17T19:37:53.350Z,35.83
2018-02-17T19:40:21.690Z,44.33
2018-02-17T19:42:50.110Z,47.17
2018-02-17T19:45:18.420Z,68.67
2018-02-17T19:47:47.102Z,43.77
2018-02-17T19:50:16.127Z,57.73
2018-02-17T19:52:44.467Z,38.70
2018-02-17T19:55:12.799Z,51.03
2018-02-17T19:57:41.118Z,42.70
2018-02-17T20:00:09.435Z,55.03
2018-02-17T20:02:38.478Z,53.80
2018-02-17T20:05:06.795Z,36.83
2018-02-17T20:07:35.906Z,42.13
2018-02-17T20:10:04.359Z,47.43
2018-02-17T20:12:32.627Z,41.17
2018-02-17T20:15:01.178Z,38.23
2018-02-17T20:17:29.443Z,46.83
2018-02-17T20:19:57.714Z,46.57
2018-02-17T20:22:26.014Z,41.70
2018-02-17T20:24:54.297Z,61.80
2018-02-17T20:27:22.594Z,71.10
2018-02-17T20:29:50.870Z,62.87
2018-02-17T20:32:19.179Z,66.57
2018-02-17T20:34:47.539Z,63.87
2018-02-17T20:37:16.606Z,54.93
2018-02-17T20:39:44.888Z,48.97
2018-02-17T20:42:13.173Z,49.90
2018-02-17T20:44:41.449Z,53.90
2018-02-17T20:47:09.740Z,49.53
2018-02-17T20:49:38.053Z,43.10
2018-02-17T20:52:06.370Z,50.67
2018-02-17T20:54:34.712Z,43.70
2018-02-17T20:57:03.037Z,46.63
2018-02-17T20:59:31.336Z,59.17
2018-02-17T21:02:00.374Z,49.07
2018-02-17T21:04:28.645Z,51.50
2018-02-17T21:06:56.964Z,52.83
2018-02-17T21:09:25.301Z,73.60
2018-02-17T21:11:53.560Z,63.07
2018-02-17T21:14:21.915Z,50.97
2018-02-17T21:16:50.228Z,42.83
2018-02-17T21:19:18.900Z,55.23
2018-02-17T21:21:47.180Z,38.43
2018-02-17T21:24:15.868Z,53.70
2018-02-17T21:26:44.171Z,46.07
2018-02-17T21:29:12.558Z,53.27
2018-02-17T21:31:41.595Z,49.10
2018-02-17T21:34:09.952Z,55.57
2018-02-17T21:36:38.232Z,71.37
2018-02-17T21:39:06.499Z,65.43
2018-02-17T21:41:34.830Z,62.17
2018-02-17T21:44:03.308Z,55.37
2018-02-17T21:46:31.745Z,57.10
2018-02-17T21:49:00.073Z,81.00
2018-02-17T21:51:28.358Z,66.87
2018-02-17T21:53:57.429Z,85.90
2018-02-17T21:56:25.802Z,76.83
2018-02-17T21:58:54.096Z,76.27
2018-02-17T22:01:22.344Z,79.73
2018-02-17T22:03:50.653Z,77.57
2018-02-17T22:06:18.960Z,57.67
2018-02-17T22:08:47.988Z,81.03
2018-02-17T22:11:16.263Z,67.07
2018-02-17T22:13:44.528Z,67.20
2018-02-17T22:16:12.816Z,48.50
2018-02-17T22:18:41.144Z,66.47
2018-02-17T22:21:09.373Z,65.73
2018-02-17T22:23:37.691Z,64.47
2018-02-17T22:26:05.972Z,62.23
2018-02-17T22:28:34.278Z,53.47
2018-02-17T22:31:03.308Z,79.77
2018-02-17T22:33:31.578Z,63.17
2018-02-17T22:35:59.969Z,60.17
2018-02-17T22:38:28.304Z,66.13
2018-02-17T22:40:56.548Z,61.03
2018-02-17T22:43:24.814Z,63.60
2018-02-17T22:45:53.104Z,64.20
2018-02-17T22:48:22.879Z,78.00
2018-02-17T22:50:51.152Z,80.47
2018-02-17T22:53:19.424Z,70.03
2018-02-17T22:55:47.764Z,77.27
2018-02-17T22:58:16.024Z,66.73
2018-02-17T23:00:44.321Z,54.50
2018-02-17T23:03:12.882Z,60.80
2018-02-17T23:05:42.742Z,70.57
2018-02-17T23:08:12.225Z,64.60
2018-02-17T23:10:40.484Z,64.83
2018-02-17T23:13:08.775Z,72.50
2018-02-17T23:15:37.793Z,67.10
2018-02-17T23:18:06.847Z,79.60
2018-02-17T23:20:35.151Z,62.83
2018-02-17T23:23:03.456Z,68.37
2018-02-17T23:25:32.627Z,65.43
2018-02-17T23:28:00.901Z,78.63
2018-02-17T23:30:29.182Z,76.10
2018-02-17T23:32:57.476Z,83.47
2018-02-17T23:35:26.556Z,65.77
2018-02-17T23:37:54.826Z,73.03
2018-02-17T23:40:23.319Z,104.13
2018-02-17T23:42:53.085Z,91.40
2018-02-17T23:45:21.352Z,87.60
2018-02-17T23:47:50.067Z,80.80
2018-02-17T23:50:18.315Z,69.60
2018-02-17T23:52:46.584Z,92.13
2018-02-17T23:55:14.860Z,97.90
2018-02-17T23:57:43.125Z,92.23
